Time;durP1;ratioP1;P1;durP2;ratioP2;P2;SDS_P1;SDS_P2;PMS_P1;PMS_P2;Temp;Humidity;BMP_temperature;BMP_pressure;BME280_temperature;BME280_humidity;BME280_pressure;Samples;Min_cycle;Max_cycle;Signal;HPM_P1;HPM_P2
2022/10/08 01:17:05;;;;;;;;;16.00;16.00;;;;;;;;5032110;28;10812;-81
2022/10/08 01:20:28;;;;;;;;;12.00;12.00;;;;;;;;5004904;28;10696;-82
2022/10/08 01:23:32;;;;;;;;;16.50;14.00;;;;;;;;5033483;28;11378;-82
2022/10/08 01:26:15;;;;;;;;;12.25;12.25;;;;;;;;5028832;28;10555;-84
2022/10/08 01:28:48;;;;;;;;;9.50;9.50;;;;;;;;5041659;28;10490;-84
2022/10/08 01:31:18;;;;;;;;;10.00;9.00;;;;;;;;5025685;28;10435;-83
2022/10/08 01:33:51;;;;;;;;;9.50;9.50;;;;;;;;5042586;28;11352;-82
2022/10/08 01:36:20;;;;;;;;;11.25;9.25;;;;;;;;5019728;28;10345;-83
2022/10/08 01:38:52;;;;;;;;;9.00;9.00;;;;;;;;5004798;28;10516;-84
2022/10/08 01:41:21;;;;;;;;;10.00;8.50;;;;;;;;5042596;28;10511;-83
2022/10/08 01:43:54;;;;;;;;;8.00;8.00;;;;;;;;5043357;28;10337;-82
2022/10/08 01:46:25;;;;;;;;;8.75;8.75;;;;;;;;5042189;28;10413;-84
2022/10/08 01:48:56;;;;;;;;;9.50;7.00;;;;;;;;5043846;28;10161;-83
2022/10/08 01:51:26;;;;;;;;;6.75;6.75;;;;;;;;5010937;28;10419;-84
2022/10/08 01:53:54;;;;;;;;;6.00;4.25;;;;;;;;5041049;28;10291;-82
2022/10/08 01:56:25;;;;;;;;;3.50;3.50;;;;;;;;5041753;28;10191;-83
2022/10/08 01:58:56;;;;;;;;;5.75;4.75;;;;;;;;5041194;28;10703;-82
2022/10/08 02:01:27;;;;;;;;;5.00;5.00;;;;;;;;5037074;28;9906;-83
2022/10/08 02:06:43;;;;;;;;;5.00;3.75;;;;;;;;5031983;28;9930;-82
2022/10/08 02:09:11;;;;;;;;;8.25;4.25;;;;;;;;5020872;28;10731;-84
2022/10/08 02:11:38;;;;;;;;;4.00;4.00;;;;;;;;5041349;28;10049;-83
2022/10/08 02:14:07;;;;;;;;;4.75;4.75;;;;;;;;5024895;28;9788;-82
2022/10/08 02:16:38;;;;;;;;;5.25;4.00;;;;;;;;5029959;28;9865;-83
2022/10/08 02:19:09;;;;;;;;;2.25;2.25;;;;;;;;5018010;28;10093;-84
2022/10/08 03:05:32;;;;;;;;;4.00;4.00;;;;;;;;5006544;28;10989;-84
2022/10/08 03:08:00;;;;;;;;;5.00;5.00;;;;;;;;4988412;28;10012;-84
2022/10/08 03:10:29;;;;;;;;;5.00;5.00;;;;;;;;5002504;28;10031;-85
2022/10/08 03:13:00;;;;;;;;;4.00;4.00;;;;;;;;5019794;28;9861;-86
2022/10/08 03:15:27;;;;;;;;;8.25;6.00;;;;;;;;5002818;28;9700;-85
2022/10/08 03:18:05;;;;;;;;;7.00;5.25;;;;;;;;5041989;28;9761;-85
2022/10/08 03:20:43;;;;;;;;;5.00;5.00;;;;;;;;5037067;28;9717;-87
2022/10/08 03:23:11;;;;;;;;;5.25;5.25;;;;;;;;5038015;28;9621;-84
2022/10/08 03:25:39;;;;;;;;;5.00;5.00;;;;;;;;5034546;28;9713;-84
2022/10/08 03:28:06;;;;;;;;;5.00;5.00;;;;;;;;5034182;28;9622;-84
2022/10/08 03:30:33;;;;;;;;;11.50;8.00;;;;;;;;5021215;28;9467;-84
2022/10/08 03:33:00;;;;;;;;;4.75;4.75;;;;;;;;5029478;28;9581;-83
2022/10/08 03:35:28;;;;;;;;;4.00;4.00;;;;;;;;5023620;28;9585;-83
2022/10/08 03:37:57;;;;;;;;;5.75;5.75;;;;;;;;5034021;28;9462;-84
2022/10/08 03:40:24;;;;;;;;;6.00;5.00;;;;;;;;5037227;28;9489;-84
2022/10/08 03:42:51;;;;;;;;;7.00;7.00;;;;;;;;5043422;28;9481;-83
2022/10/08 03:45:19;;;;;;;;;5.00;5.00;;;;;;;;5020995;28;9563;-85
2022/10/08 03:47:51;;;;;;;;;4.00;4.00;;;;;;;;5022325;28;9478;-84
2022/10/08 03:53:04;;;;;;;;;5.75;5.75;;;;;;;;5032405;28;9619;-84
2022/10/08 03:55:31;;;;;;;;;5.75;5.75;;;;;;;;5038619;28;9547;-84
2022/10/08 03:57:59;;;;;;;;;5.50;5.50;;;;;;;;5038667;28;9567;-85
2022/10/08 04:00:27;;;;;;;;;5.50;5.50;;;;;;;;5038241;28;9334;-83
2022/10/08 04:02:54;;;;;;;;;6.00;6.00;;;;;;;;5038582;28;9493;-86
2022/10/08 04:05:21;;;;;;;;;9.75;8.25;;;;;;;;5040793;28;9805;-84
2022/10/08 04:07:49;;;;;;;;;5.00;5.00;;;;;;;;5039130;28;9625;-84
2022/10/08 04:10:17;;;;;;;;;5.50;5.50;;;;;;;;5038010;28;9809;-83
2022/10/08 04:12:45;;;;;;;;;5.75;5.75;;;;;;;;5037438;28;9845;-84
2022/10/08 04:15:12;;;;;;;;;9.25;8.25;;;;;;;;5035424;28;9609;-85
2022/10/08 04:17:41;;;;;;;;;10.00;8.00;;;;;;;;5036886;28;9740;-85
2022/10/08 04:20:09;;;;;;;;;9.50;6.00;;;;;;;;5035380;28;9587;-85
2022/10/08 04:22:36;;;;;;;;;4.25;4.25;;;;;;;;5031886;28;9650;-85
2022/10/08 04:25:04;;;;;;;;;5.00;5.00;;;;;;;;5034035;28;9670;-86
2022/10/08 04:27:33;;;;;;;;;4.25;3.00;;;;;;;;5031428;28;9578;-84
2022/10/08 04:30:00;;;;;;;;;4.00;4.00;;;;;;;;5041793;28;10381;-86
2022/10/08 04:32:28;;;;;;;;;4.75;4.75;;;;;;;;5039663;28;9552;-83
2022/10/08 04:34:55;;;;;;;;;4.75;4.75;;;;;;;;5039803;28;9507;-83
2022/10/08 04:37:23;;;;;;;;;3.33;3.33;;;;;;;;5041398;28;9451;-84
2022/10/08 04:39:50;;;;;;;;;2.50;2.50;;;;;;;;5042224;28;9400;-84
2022/10/08 04:42:17;;;;;;;;;4.00;2.25;;;;;;;;5043841;28;9635;-85
2022/10/08 04:44:46;;;;;;;;;4.67;4.33;;;;;;;;5040258;28;9486;-85
2022/10/08 04:47:13;;;;;;;;;9.00;3.75;;;;;;;;5042916;28;9488;-83
2022/10/08 04:49:40;;;;;;;;;4.00;4.00;;;;;;;;5038029;28;9454;-84
2022/10/08 04:52:08;;;;;;;;;3.00;3.00;;;;;;;;5032365;28;9426;-83
2022/10/08 04:54:36;;;;;;;;;6.00;4.75;;;;;;;;5039624;28;9335;-83
2022/10/08 04:57:03;;;;;;;;;2.67;2.33;;;;;;;;5042291;28;9474;-84
2022/10/08 04:59:30;;;;;;;;;3.25;3.25;;;;;;;;5037153;28;9460;-83
2022/10/08 05:02:00;;;;;;;;;3.00;3.00;;;;;;;;5038072;28;9432;-85
2022/10/08 05:04:27;;;;;;;;;3.00;3.00;;;;;;;;5039028;28;9507;-84
2022/10/08 05:06:55;;;;;;;;;4.00;4.00;;;;;;;;5038103;28;9351;-83
2022/10/08 05:09:22;;;;;;;;;2.33;2.33;;;;;;;;5037788;28;9503;-84
2022/10/08 05:11:50;;;;;;;;;5.00;3.50;;;;;;;;5035066;28;9570;-85
2022/10/08 05:14:18;;;;;;;;;4.75;2.50;;;;;;;;5040122;28;9562;-83
2022/10/08 05:16:45;;;;;;;;;2.25;2.25;;;;;;;;5038854;28;9610;-84
2022/10/08 05:19:14;;;;;;;;;5.00;4.00;;;;;;;;5043407;28;9654;-83
2022/10/08 05:58:52;;;;;;;;;2.00;0.00;;;;;;;;5027133;28;9919;-84
2022/10/08 06:01:22;;;;;;;;;5.25;5.25;;;;;;;;5031642;28;9828;-85
2022/10/08 06:03:51;;;;;;;;;3.00;3.00;;;;;;;;5037584;28;10290;-85
2022/10/08 06:06:18;;;;;;;;;3.75;3.75;;;;;;;;5033175;28;9872;-83
2022/10/08 06:08:47;;;;;;;;;4.00;2.75;;;;;;;;5032530;28;9976;-83
2022/10/08 06:11:14;;;;;;;;;3.50;3.50;;;;;;;;5035670;28;10015;-83
2022/10/08 06:13:41;;;;;;;;;4.50;3.00;;;;;;;;5035928;28;9955;-85
2022/10/08 06:16:11;;;;;;;;;2.75;2.75;;;;;;;;5035284;28;10086;-84
2022/10/08 06:18:40;;;;;;;;;6.75;5.25;;;;;;;;5037971;28;10079;-78
2022/10/08 06:27:19;;;;;;;;;5.00;4.00;;;;;;;;5689771;23;10042;-81
2022/10/08 06:29:46;;;;;;;;;3.25;3.25;;;;;;;;4989199;28;9960;-78
2022/10/08 06:32:15;;;;;;;;;2.75;2.00;;;;;;;;4984110;28;9994;-79
2022/10/08 06:34:42;;;;;;;;;4.50;3.00;;;;;;;;4982942;28;10007;-80
2022/10/08 06:37:09;;;;;;;;;3.50;3.50;;;;;;;;4985308;28;9882;-83
2022/10/08 06:39:37;;;;;;;;;4.00;2.00;;;;;;;;4985334;28;10766;-83
2022/10/08 06:42:04;;;;;;;;;3.50;2.75;;;;;;;;4981141;28;9930;-83
2022/10/08 06:44:32;;;;;;;;;2.00;2.00;;;;;;;;4984216;28;9991;-83
2022/10/08 06:46:59;;;;;;;;;3.00;3.00;;;;;;;;4981173;28;9859;-83
2022/10/08 06:49:28;;;;;;;;;3.00;3.00;;;;;;;;4966351;28;9803;-86
2022/10/08 07:32:37;;;;;;;;;7.00;5.25;;;;;;;;4934462;28;9609;-79
2022/10/08 07:35:05;;;;;;;;;5.00;4.00;;;;;;;;4946094;28;9575;-85
2022/10/08 07:37:33;;;;;;;;;4.00;4.00;;;;;;;;4941944;28;9665;-83
2022/10/08 07:40:00;;;;;;;;;8.00;5.50;;;;;;;;4948451;28;9693;-83
2022/10/08 07:42:30;;;;;;;;;10.00;8.00;;;;;;;;4944729;28;9669;-81
2022/10/08 07:44:57;;;;;;;;;7.25;7.25;;;;;;;;4945056;28;9667;-83
2022/10/08 07:47:25;;;;;;;;;7.50;5.00;;;;;;;;4943618;28;9694;-81
2022/10/08 07:49:53;;;;;;;;;5.67;5.67;;;;;;;;4947844;28;9501;-85
2022/10/08 07:59:39;;;;;;;;;6.67;5.00;;;;;;;;4945986;28;9256;-84
2022/10/08 08:02:08;;;;;;;;;5.33;4.33;;;;;;;;4940116;28;9366;-85
2022/10/08 08:04:36;;;;;;;;;8.00;8.00;;;;;;;;4936615;28;9285;-82
2022/10/08 08:07:05;;;;;;;;;13.25;11.25;;;;;;;;4941275;28;9317;-87
2022/10/08 08:09:32;;;;;;;;;3.67;3.67;;;;;;;;4921554;28;10108;-83
2022/10/08 08:12:00;;;;;;;;;10.67;10.67;;;;;;;;4941439;28;9126;-83
2022/10/08 08:14:27;;;;;;;;;5.67;4.67;;;;;;;;4949859;28;9370;-85
2022/10/08 08:16:54;;;;;;;;;5.67;5.67;;;;;;;;4943241;28;9016;-85
2022/10/08 08:19:23;;;;;;;;;7.75;4.75;;;;;;;;4947758;28;8963;-82
2022/10/08 08:22:37;;;;;;;;;5.33;5.33;;;;;;;;4936567;28;8884;-87
2022/10/08 08:25:06;;;;;;;;;4.67;4.67;;;;;;;;4942025;28;9036;-84
2022/10/08 08:27:34;;;;;;;;;5.25;5.25;;;;;;;;4935291;28;9013;-90
2022/10/08 08:30:01;;;;;;;;;8.75;5.00;;;;;;;;4944187;28;8892;-88
2022/10/08 08:32:30;;;;;;;;;6.75;4.25;;;;;;;;4980380;28;8941;-87
2022/10/08 08:34:57;;;;;;;;;5.25;4.00;;;;;;;;4979070;28;8898;-85
2022/10/08 08:37:25;;;;;;;;;9.00;9.00;;;;;;;;4964028;28;8982;-85
2022/10/08 08:39:52;;;;;;;;;12.33;8.67;;;;;;;;4980459;28;9191;-89
2022/10/08 08:42:29;;;;;;;;;4.33;4.00;;;;;;;;4978097;28;9378;-85
2022/10/08 08:44:59;;;;;;;;;4.75;3.25;;;;;;;;4985260;28;9148;-87
2022/10/08 08:47:31;;;;;;;;;3.50;3.50;;;;;;;;4982778;28;8878;-86
2022/10/08 08:50:03;;;;;;;;;4.00;4.00;;;;;;;;4994892;28;8895;-87
2022/10/08 08:52:35;;;;;;;;;5.00;3.25;;;;;;;;4982641;28;8874;-89
2022/10/08 08:55:02;;;;;;;;;2.75;2.75;;;;;;;;4964375;28;8955;-80
2022/10/08 08:57:37;;;;;;;;;1.75;1.75;;;;;;;;4983835;28;8874;-83
2022/10/08 09:00:10;;;;;;;;;2.75;2.75;;;;;;;;4988286;28;8871;-88
2022/10/08 09:02:40;;;;;;;;;3.50;2.00;;;;;;;;4985240;28;8885;-81
2022/10/08 09:05:10;;;;;;;;;3.25;2.50;;;;;;;;4982719;28;8893;-79
2022/10/08 09:07:42;;;;;;;;;2.75;2.50;;;;;;;;4981861;28;8931;-83
2022/10/08 09:10:15;;;;;;;;;1.75;1.75;;;;;;;;4984738;28;8890;-85
2022/10/08 09:12:44;;;;;;;;;4.00;2.00;;;;;;;;4967744;28;8870;-82
2022/10/08 09:15:18;;;;;;;;;2.00;2.00;;;;;;;;4986062;28;8901;-84
2022/10/08 09:17:46;;;;;;;;;2.00;2.00;;;;;;;;4984894;28;8848;-82
2022/10/08 09:20:15;;;;;;;;;2.00;2.00;;;;;;;;4993799;28;8906;-87
2022/10/08 09:22:44;;;;;;;;;1.00;1.00;;;;;;;;4960562;28;8848;-86
2022/10/08 09:25:15;;;;;;;;;2.00;0.75;;;;;;;;4997599;28;8870;-82
2022/10/08 09:27:48;;;;;;;;;7.50;7.50;;;;;;;;4998079;28;8878;-81
2022/10/08 09:30:30;;;;;;;;;1.50;1.00;;;;;;;;4982655;28;8897;-80
2022/10/08 09:32:59;;;;;;;;;0.00;0.00;;;;;;;;4983580;28;8878;-83
2022/10/08 09:35:27;;;;;;;;;2.75;1.00;;;;;;;;4966931;28;8887;-88
2022/10/08 09:37:56;;;;;;;;;1.00;1.00;;;;;;;;4985936;28;8881;-85
2022/10/08 09:40:25;;;;;;;;;2.00;1.75;;;;;;;;4985690;28;8886;-80
2022/10/08 09:43:11;;;;;;;;;3.00;2.25;;;;;;;;4981211;28;8898;-87
2022/10/08 09:45:44;;;;;;;;;3.00;1.25;;;;;;;;4983054;28;8870;-86
2022/10/08 09:48:23;;;;;;;;;2.00;2.00;;;;;;;;4984144;28;8882;-85
2022/10/08 09:50:57;;;;;;;;;2.00;1.00;;;;;;;;4981211;28;8854;-83
2022/10/08 10:20:38;;;;;;;;;1.40;1.00;;;;;;;;5806741;23;8919;-80
2022/10/08 10:23:10;;;;;;;;;0.60;0.60;;;;;;;;4970083;28;8904;-82
2022/10/08 10:25:42;;;;;;;;;2.80;2.80;;;;;;;;4980512;28;8873;-77
2022/10/08 10:28:13;;;;;;;;;0.80;0.20;;;;;;;;4981195;28;8881;-84
2022/10/08 10:30:51;;;;;;;;;1.00;1.00;;;;;;;;4982544;28;8843;-86
2022/10/08 10:33:22;;;;;;;;;1.40;1.00;;;;;;;;4981470;28;8919;-82
2022/10/08 10:35:53;;;;;;;;;41.00;33.25;;;;;;;;4976879;28;8947;-88
2022/10/08 10:38:24;;;;;;;;;3.00;3.00;;;;;;;;4964400;28;10438;-82
2022/10/08 10:41:04;;;;;;;;;0.40;0.00;;;;;;;;4983451;28;8932;-79
2022/10/08 10:43:43;;;;;;;;;110.67;108.67;;;;;;;;4966737;28;8939;-78
2022/10/08 10:48:46;;;;;;;;;282.25;271.25;;;;;;;;5233836;23;9012;-81
2022/10/08 10:51:35;;;;;;;;;12.40;12.40;;;;;;;;4965435;28;9658;-83
2022/10/08 10:54:14;;;;;;;;;80.60;74.20;;;;;;;;4976580;28;8880;-82
2022/10/08 10:56:47;;;;;;;;;3.00;1.80;;;;;;;;4981490;28;8931;-79
2022/10/08 10:59:33;;;;;;;;;1821.50;1517.33;;;;;;;;4979490;28;8915;-79
2022/10/08 11:02:07;;;;;;;;;0.00;0.00;;;;;;;;4979895;28;8830;-79
2022/10/08 11:04:43;;;;;;;;;59.75;46.75;;;;;;;;4979212;28;8919;-83
2022/10/08 11:07:40;;;;;;;;;150.50;140.00;;;;;;;;4982211;28;8892;-79
2022/10/08 11:10:15;;;;;;;;;23.75;23.00;;;;;;;;4972446;28;11662;-80
2022/10/08 11:12:47;;;;;;;;;1.00;1.00;;;;;;;;4978193;28;8980;-80
2022/10/08 11:15:23;;;;;;;;;1.00;1.00;;;;;;;;4983248;28;8861;-78
2022/10/08 11:18:06;;;;;;;;;0.00;0.00;;;;;;;;4982174;28;8880;-77
2022/10/08 11:20:50;;;;;;;;;0.40;0.40;;;;;;;;4978515;28;8923;-78
2022/10/08 12:18:47;;;;;;;;;0.00;0.00;;;;;;;;4954329;28;8856;-82
2022/10/08 12:21:42;;;;;;;;;0.00;0.00;;;;;;;;4976462;28;8877;-81
2022/10/08 12:37:03;;;;;;;;;0.00;0.00;;;;;;;;5848002;23;9022;-80
2022/10/08 12:39:36;;;;;;;;;0.00;0.00;;;;;;;;4959689;28;8902;-79
2022/10/08 12:42:13;;;;;;;;;0.80;0.00;;;;;;;;4961935;28;8867;-80
2022/10/08 12:44:49;;;;;;;;;0.00;0.00;;;;;;;;4961766;28;8879;-84
2022/10/08 12:47:25;;;;;;;;;1.60;0.80;;;;;;;;4967507;28;9542;-79
2022/10/08 12:49:56;;;;;;;;;0.00;0.00;;;;;;;;4964544;28;8892;-77
2022/10/08 12:52:25;;;;;;;;;0.80;0.00;;;;;;;;4966898;28;8904;-76
2022/10/08 17:43:54;;;;;;;;;0.00;0.00;;;;;;;;4923325;23;8915;-82
2022/10/08 17:46:23;;;;;;;;;7.00;7.00;;;;;;;;4818307;29;9036;-90
2022/10/08 17:48:51;;;;;;;;;34.25;33.50;;;;;;;;4818374;29;9839;-86
2022/10/08 17:51:20;;;;;;;;;1.33;1.33;;;;;;;;4822741;29;10683;-83
2022/10/08 17:53:52;;;;;;;;;0.00;0.00;;;;;;;;4832441;29;9612;-84
2022/10/08 17:56:21;;;;;;;;;0.00;0.00;;;;;;;;4836596;29;8881;-83
2022/10/08 17:58:48;;;;;;;;;0.50;0.50;;;;;;;;4837024;29;8934;-82
2022/10/08 18:01:18;;;;;;;;;2.00;1.00;;;;;;;;4835193;29;9964;-81
2022/10/08 18:03:50;;;;;;;;;1.33;0.00;;;;;;;;4815614;29;9067;-80
2022/10/08 18:06:18;;;;;;;;;0.00;0.00;;;;;;;;4824791;29;8987;-80
2022/10/08 18:08:45;;;;;;;;;0.00;0.00;;;;;;;;4835340;29;9817;-83
2022/10/08 18:11:14;;;;;;;;;0.00;0.00;;;;;;;;4837922;29;9053;-86
2022/10/08 18:13:42;;;;;;;;;0.00;0.00;;;;;;;;4846410;29;9135;-84
2022/10/08 18:16:33;;;;;;;;;0.00;0.00;;;;;;;;4829987;29;9095;-85
2022/10/08 18:19:05;;;;;;;;;0.00;0.00;;;;;;;;4834059;29;9303;-87
2022/10/08 18:21:32;;;;;;;;;0.00;0.00;;;;;;;;4835854;29;9237;-83
2022/10/08 18:24:00;;;;;;;;;0.00;0.00;;;;;;;;4838509;29;9366;-81
2022/10/08 18:26:29;;;;;;;;;1.00;0.00;;;;;;;;4834388;29;9392;-81
2022/10/08 18:28:58;;;;;;;;;0.00;0.00;;;;;;;;4832559;29;9434;-82
2022/10/08 18:31:28;;;;;;;;;0.00;0.00;;;;;;;;4841525;29;9300;-81
2022/10/08 18:33:57;;;;;;;;;0.00;0.00;;;;;;;;4848522;29;9633;-82
2022/10/08 18:36:27;;;;;;;;;1.00;0.00;;;;;;;;4840932;29;9582;-82
2022/10/08 18:38:55;;;;;;;;;0.00;0.00;;;;;;;;4842052;29;9507;-81
2022/10/08 18:41:24;;;;;;;;;1.75;0.00;;;;;;;;4845874;29;9636;-85
2022/10/08 18:43:52;;;;;;;;;0.00;0.00;;;;;;;;4836225;29;9737;-79
2022/10/08 18:46:20;;;;;;;;;0.00;0.00;;;;;;;;4827791;29;9549;-79
2022/10/08 18:48:49;;;;;;;;;0.00;0.00;;;;;;;;4831127;29;9764;-80
2022/10/08 18:51:19;;;;;;;;;0.00;0.00;;;;;;;;4816858;29;9694;-79
2022/10/08 18:53:48;;;;;;;;;1.00;1.00;;;;;;;;4844002;29;9844;-81
2022/10/08 18:56:17;;;;;;;;;1.50;1.00;;;;;;;;4833312;29;9934;-82
2022/10/08 18:58:45;;;;;;;;;2.25;2.25;;;;;;;;4835549;29;10009;-82
2022/10/08 19:01:18;;;;;;;;;2.00;2.00;;;;;;;;4820194;29;10140;-81
2022/10/08 19:03:46;;;;;;;;;2.25;2.25;;;;;;;;4833007;29;10065;-80
2022/10/08 19:06:14;;;;;;;;;1.00;1.00;;;;;;;;4832535;29;10168;-82
2022/10/08 19:08:41;;;;;;;;;0.25;0.25;;;;;;;;4831816;29;10234;-81
2022/10/08 19:11:11;;;;;;;;;0.75;0.75;;;;;;;;4833564;29;10347;-81
2022/10/08 19:13:39;;;;;;;;;2.25;2.00;;;;;;;;4842452;29;10228;-81
2022/10/08 19:19:45;;;;;;;;;2.00;2.00;;;;;;;;4829889;29;10381;-81
2022/10/08 19:22:15;;;;;;;;;4.75;3.50;;;;;;;;4833823;29;10414;-80
2022/10/08 19:24:42;;;;;;;;;3.00;3.00;;;;;;;;4838913;29;10564;-80
2022/10/08 19:27:13;;;;;;;;;3.00;3.00;;;;;;;;4835539;29;10614;-81
2022/10/08 19:29:40;;;;;;;;;1.50;1.25;;;;;;;;4848480;29;10465;-80
2022/10/08 19:32:16;;;;;;;;;5.00;3.00;;;;;;;;4830132;29;10504;-82
2022/10/08 19:34:44;;;;;;;;;3.00;3.00;;;;;;;;4839082;29;10524;-80
2022/10/08 19:37:13;;;;;;;;;3.25;2.00;;;;;;;;4835047;29;10841;-81
2022/10/08 19:39:45;;;;;;;;;2.25;2.25;;;;;;;;4834233;29;10689;-81
2022/10/08 19:42:26;;;;;;;;;3.00;3.00;;;;;;;;4831961;29;10702;-81
2022/10/08 19:44:56;;;;;;;;;6.50;4.00;;;;;;;;4839749;29;10602;-81
2022/10/08 19:47:23;;;;;;;;;4.00;4.00;;;;;;;;4832720;29;10755;-82
2022/10/08 19:49:51;;;;;;;;;4.00;4.00;;;;;;;;4838612;29;10778;-80
2022/10/08 19:52:21;;;;;;;;;3.50;3.50;;;;;;;;4838630;29;10754;-80
2022/10/08 19:54:51;;;;;;;;;2.00;2.00;;;;;;;;4844910;29;10780;-81
2022/10/08 19:57:22;;;;;;;;;4.25;4.25;;;;;;;;4848629;29;10678;-82
2022/10/08 19:59:49;;;;;;;;;2.50;2.50;;;;;;;;4832820;29;10893;-81
2022/10/08 20:02:17;;;;;;;;;3.75;3.75;;;;;;;;4840097;29;10916;-81
2022/10/08 20:04:47;;;;;;;;;5.50;3.50;;;;;;;;4834069;29;10845;-81
2022/10/08 20:07:17;;;;;;;;;5.50;5.50;;;;;;;;4838898;29;10987;-82
2022/10/08 20:09:45;;;;;;;;;5.25;4.75;;;;;;;;4841872;29;10950;-82
2022/10/08 20:12:13;;;;;;;;;3.00;3.00;;;;;;;;4845604;29;11064;-81
2022/10/08 20:14:44;;;;;;;;;3.75;3.00;;;;;;;;4840356;29;11084;-80
2022/10/08 20:17:12;;;;;;;;;3.00;3.00;;;;;;;;4809712;29;10996;-81
2022/10/08 20:19:39;;;;;;;;;3.00;3.00;;;;;;;;4832980;29;11044;-81
2022/10/08 20:22:07;;;;;;;;;3.00;3.00;;;;;;;;4829493;29;11103;-80
2022/10/08 20:24:35;;;;;;;;;3.00;3.00;;;;;;;;4832919;29;11182;-81
2022/10/08 20:27:03;;;;;;;;;3.00;3.00;;;;;;;;4832914;29;10995;-80
2022/10/08 20:29:30;;;;;;;;;2.75;2.75;;;;;;;;4832279;29;11089;-81
2022/10/08 20:31:59;;;;;;;;;2.75;2.75;;;;;;;;4818781;29;11031;-80
2022/10/08 20:34:29;;;;;;;;;2.25;2.25;;;;;;;;4833068;29;11121;-80
2022/10/08 20:37:00;;;;;;;;;3.25;2.00;;;;;;;;4839809;29;11661;-80
2022/10/08 20:39:27;;;;;;;;;2.00;2.00;;;;;;;;4839249;29;11002;-81
2022/10/08 20:41:58;;;;;;;;;3.00;3.00;;;;;;;;4827562;29;11063;-81
2022/10/08 20:44:28;;;;;;;;;3.50;1.75;;;;;;;;4829117;29;11182;-84
2022/10/08 20:46:56;;;;;;;;;2.75;2.00;;;;;;;;4809312;29;11292;-82
2022/10/08 20:49:25;;;;;;;;;4.50;2.00;;;;;;;;4834727;29;11237;-81
2022/10/08 20:51:52;;;;;;;;;0.75;0.75;;;;;;;;4832683;29;11178;-82
2022/10/08 20:54:20;;;;;;;;;2.00;2.00;;;;;;;;4823107;29;11179;-81
2022/10/08 20:56:50;;;;;;;;;2.25;1.75;;;;;;;;4826758;29;11172;-80
2022/10/08 20:59:18;;;;;;;;;4.00;2.00;;;;;;;;4845390;29;11046;-81
2022/10/08 21:01:49;;;;;;;;;2.00;2.00;;;;;;;;4830662;29;11094;-81
2022/10/08 21:04:17;;;;;;;;;3.25;3.25;;;;;;;;4832598;29;11977;-80
2022/10/08 21:06:50;;;;;;;;;4.00;3.00;;;;;;;;4832385;29;11516;-81
2022/10/08 21:09:20;;;;;;;;;9.00;7.00;;;;;;;;4840774;29;11594;-80
2022/10/08 21:11:48;;;;;;;;;3.25;3.25;;;;;;;;4834375;29;11507;-81
2022/10/08 21:14:19;;;;;;;;;4.25;4.25;;;;;;;;4820734;29;11506;-82
2022/10/08 21:16:46;;;;;;;;;7.50;6.50;;;;;;;;4830584;29;11504;-81
2022/10/08 21:19:20;;;;;;;;;4.75;4.50;;;;;;;;4837430;29;11527;-81
2022/10/08 21:22:01;;;;;;;;;7.25;7.00;;;;;;;;4843823;29;11494;-81
2022/10/08 21:24:28;;;;;;;;;4.25;4.25;;;;;;;;4829237;29;11519;-81
2022/10/08 21:26:55;;;;;;;;;23.50;22.75;;;;;;;;4843189;29;11508;-81
2022/10/08 21:29:23;;;;;;;;;20.00;17.25;;;;;;;;4840140;29;11669;-82
2022/10/08 21:32:28;;;;;;;;;20.75;19.00;;;;;;;;4834057;29;11490;-82
2022/10/08 21:35:05;;;;;;;;;16.00;16.00;;;;;;;;4834699;29;11580;-82
2022/10/08 21:37:34;;;;;;;;;20.25;20.25;;;;;;;;4834470;29;11570;-80
2022/10/08 21:40:01;;;;;;;;;26.50;25.25;;;;;;;;4834477;29;11569;-82
2022/10/08 21:42:29;;;;;;;;;18.00;18.00;;;;;;;;4838065;29;11585;-83
2022/10/08 21:44:56;;;;;;;;;26.25;21.75;;;;;;;;4837430;29;11570;-82
2022/10/08 21:47:23;;;;;;;;;21.25;20.50;;;;;;;;4830509;29;12431;-82
2022/10/08 21:49:50;;;;;;;;;18.50;17.25;;;;;;;;4836751;29;11711;-83
2022/10/08 21:52:18;;;;;;;;;21.75;20.75;;;;;;;;4833935;29;11576;-81
2022/10/08 21:54:47;;;;;;;;;26.50;20.75;;;;;;;;4827204;29;11574;-83
2022/10/08 21:57:14;;;;;;;;;18.00;15.50;;;;;;;;4842692;29;11579;-81
2022/10/08 21:59:42;;;;;;;;;14.50;14.50;;;;;;;;4847256;29;11583;-81
2022/10/08 22:02:09;;;;;;;;;12.50;10.50;;;;;;;;4835560;29;11468;-83
2022/10/08 22:04:36;;;;;;;;;16.00;16.00;;;;;;;;4834372;29;11598;-81
2022/10/08 22:07:04;;;;;;;;;12.50;12.50;;;;;;;;4838305;29;11548;-81
2022/10/08 22:09:35;;;;;;;;;13.00;10.25;;;;;;;;4833385;29;12409;-81
2022/10/08 22:12:04;;;;;;;;;14.00;14.00;;;;;;;;4845037;29;11535;-81
2022/10/08 22:14:32;;;;;;;;;13.25;13.25;;;;;;;;4825090;29;11534;-81
2022/10/08 22:16:59;;;;;;;;;12.25;12.25;;;;;;;;4824945;29;11666;-81
2022/10/08 22:19:26;;;;;;;;;10.00;9.00;;;;;;;;4834664;29;11535;-80
2022/10/08 22:21:53;;;;;;;;;12.00;12.00;;;;;;;;4836107;29;11572;-82
2022/10/08 22:24:21;;;;;;;;;12.25;12.25;;;;;;;;4835056;29;11536;-81
2022/10/08 22:26:48;;;;;;;;;11.00;11.00;;;;;;;;4844371;29;11674;-82
2022/10/08 22:29:17;;;;;;;;;13.75;11.25;;;;;;;;4846154;29;11545;-82
2022/10/08 22:31:44;;;;;;;;;13.75;12.25;;;;;;;;4832337;29;12230;-81
2022/10/08 22:34:12;;;;;;;;;14.50;12.75;;;;;;;;4836560;29;11686;-81
2022/10/08 22:36:41;;;;;;;;;13.25;11.50;;;;;;;;4838295;29;11551;-81
2022/10/08 22:39:09;;;;;;;;;13.50;13.50;;;;;;;;4817591;29;11543;-82
2022/10/08 22:41:37;;;;;;;;;13.75;13.75;;;;;;;;4829962;29;11608;-81
2022/10/08 22:44:05;;;;;;;;;11.75;11.75;;;;;;;;4834725;29;12393;-82
2022/10/08 22:46:36;;;;;;;;;10.00;10.00;;;;;;;;4820641;29;11534;-82
2022/10/08 22:49:04;;;;;;;;;14.00;14.00;;;;;;;;4835927;29;11542;-81
2022/10/08 22:51:32;;;;;;;;;9.50;9.50;;;;;;;;4847730;29;11619;-81
2022/10/08 22:53:59;;;;;;;;;12.25;12.25;;;;;;;;4840173;29;11568;-81
2022/10/08 22:56:30;;;;;;;;;11.50;11.50;;;;;;;;4824741;29;11615;-80
2022/10/08 22:58:59;;;;;;;;;17.25;14.00;;;;;;;;4844627;29;11586;-79
2022/10/08 23:01:28;;;;;;;;;13.00;13.00;;;;;;;;4820390;29;11560;-81
2022/10/08 23:03:57;;;;;;;;;13.00;13.00;;;;;;;;4818928;29;11606;-81
2022/10/08 23:06:25;;;;;;;;;13.50;12.25;;;;;;;;4832648;29;11621;-81
2022/10/08 23:08:55;;;;;;;;;13.75;12.00;;;;;;;;4834068;29;11588;-82
2022/10/08 23:11:23;;;;;;;;;11.50;11.50;;;;;;;;4831496;29;11605;-81
2022/10/08 23:13:51;;;;;;;;;13.25;11.75;;;;;;;;4832651;29;11597;-82
2022/10/08 23:16:40;;;;;;;;;13.25;11.75;;;;;;;;4832614;29;11610;-82
2022/10/08 23:19:10;;;;;;;;;12.25;12.25;;;;;;;;4839266;29;11566;-82
2022/10/08 23:21:38;;;;;;;;;18.50;16.00;;;;;;;;4844022;29;11586;-81
2022/10/08 23:24:05;;;;;;;;;17.75;14.00;;;;;;;;4842590;29;11696;-81
2022/10/08 23:26:34;;;;;;;;;12.50;12.50;;;;;;;;4846676;29;11590;-82
2022/10/08 23:29:03;;;;;;;;;12.50;12.50;;;;;;;;4834265;29;11633;-82
2022/10/08 23:31:32;;;;;;;;;14.00;14.00;;;;;;;;4832187;29;11708;-81
2022/10/08 23:34:00;;;;;;;;;11.00;11.00;;;;;;;;4819244;29;11623;-81
2022/10/08 23:36:31;;;;;;;;;13.00;11.75;;;;;;;;4837543;29;11621;-81
2022/10/08 23:38:58;;;;;;;;;14.00;12.25;;;;;;;;4836350;29;11590;-81
2022/10/08 23:41:26;;;;;;;;;16.00;11.75;;;;;;;;4832172;29;11604;-81
2022/10/08 23:43:54;;;;;;;;;13.00;13.00;;;;;;;;4838333;29;11593;-81
2022/10/08 23:46:24;;;;;;;;;11.75;11.75;;;;;;;;4831786;29;11736;-81
2022/10/08 23:48:52;;;;;;;;;13.75;12.00;;;;;;;;4823736;29;11601;-81
2022/10/08 23:51:20;;;;;;;;;16.00;14.00;;;;;;;;4831544;29;11613;-81
2022/10/08 23:53:50;;;;;;;;;12.50;12.50;;;;;;;;4837159;29;11593;-82
2022/10/08 23:56:18;;;;;;;;;12.00;12.00;;;;;;;;4838723;29;11619;-81
2022/10/08 23:58:45;;;;;;;;;8.25;8.25;;;;;;;;4845645;29;11592;-82
